Time;durP1;ratioP1;P1;durP2;ratioP2;P2;SDS_P1;SDS_P2;PMS_P1;PMS_P2;Temp;Humidity;BMP_temperature;BMP_pressure;BME280_temperature;BME280_humidity;BME280_pressure;Samples;Min_cycle;Max_cycle;Signal;HPM_P1;HPM_P2
2022/02/08 00:00:59;;;;;;;;;9.25;8.25;;;;;20.77;37.26;102386.63;4922805;28;45393;-71
2022/02/08 00:03:24;;;;;;;;;11.50;11.00;;;;;20.76;37.01;102386.63;4891318;28;45386;-71
2022/02/08 00:06:16;;;;;;;;;11.50;10.00;;;;;20.74;37.05;102383.97;4906400;28;51156;-70
2022/02/08 00:08:41;;;;;;;;;8.00;5.75;;;;;20.73;37.18;102378.69;4909709;28;47315;-71
2022/02/08 00:11:07;;;;;;;;;9.50;9.00;;;;;20.74;37.09;102378.69;4897961;28;45399;-70
2022/02/08 00:13:32;;;;;;;;;12.50;10.25;;;;;20.74;37.25;102381.31;4916925;28;45455;-71
2022/02/08 00:15:57;;;;;;;;;10.75;9.00;;;;;20.76;37.71;102383.97;4922152;28;48227;-71
2022/02/08 00:18:23;;;;;;;;;8.50;7.75;;;;;20.75;37.33;102383.09;4912371;28;47007;-71
2022/02/08 00:20:48;;;;;;;;;12.25;11.50;;;;;20.75;37.41;102380.44;4906026;28;54529;-70
2022/02/08 00:23:14;;;;;;;;;9.25;9.25;;;;;20.75;37.33;102385.75;4921765;28;57585;-71
2022/02/08 00:25:39;;;;;;;;;10.25;8.00;;;;;20.76;37.29;102391.94;4922358;28;45271;-71
2022/02/08 00:28:04;;;;;;;;;11.25;8.25;;;;;20.72;37.25;102377.81;4923408;28;46087;-71
2022/02/08 00:30:30;;;;;;;;;9.00;8.25;;;;;20.72;37.36;102377.81;4922273;28;45246;-71
2022/02/08 00:32:55;;;;;;;;;11.75;11.00;;;;;20.70;37.80;102379.59;4904926;28;55238;-70
2022/02/08 00:35:21;;;;;;;;;11.25;8.75;;;;;20.69;37.38;102380.50;4905899;28;52901;-71
2022/02/08 00:37:46;;;;;;;;;11.00;9.50;;;;;20.66;37.82;102372.53;4890198;28;47204;-70
2022/02/08 00:40:12;;;;;;;;;12.25;11.25;;;;;20.67;37.65;102378.72;4906198;28;45364;-71
2022/02/08 00:42:37;;;;;;;;;12.75;11.00;;;;;20.66;37.68;102377.84;4922226;28;45510;-71
2022/02/08 00:47:50;;;;;;;;;12.50;10.25;;;;;20.66;37.75;102377.84;4922227;28;45426;-71
2022/02/08 00:50:16;;;;;;;;;14.50;9.25;;;;;20.65;37.65;102377.84;4907050;28;45383;-71
2022/02/08 00:52:41;;;;;;;;;11.25;9.75;;;;;20.64;37.95;102379.63;4906147;28;45325;-71
2022/02/08 00:55:12;;;;;;;;;11.75;11.00;;;;;20.63;37.90;102374.34;4905472;28;55051;-70
2022/02/08 00:57:37;;;;;;;;;12.50;10.00;;;;;20.64;38.11;102374.31;4890139;28;47101;-71
2022/02/08 01:00:04;;;;;;;;;13.50;10.00;;;;;20.64;37.72;102371.66;4922868;28;50957;-71
2022/02/08 01:02:30;;;;;;;;;14.00;11.00;;;;;20.65;38.04;102372.56;4906048;28;45514;-71
2022/02/08 01:04:58;;;;;;;;;12.00;10.25;;;;;20.66;37.80;102363.69;4905450;28;54261;-71
2022/02/08 01:07:24;;;;;;;;;9.75;9.75;;;;;20.65;37.52;102377.84;4905818;28;48474;-71
2022/02/08 01:09:55;;;;;;;;;10.50;9.25;;;;;20.65;37.95;102381.38;4905611;28;45258;-71
2022/02/08 01:12:21;;;;;;;;;12.50;10.00;;;;;20.65;37.95;102378.75;4881356;28;45735;-70
2022/02/08 01:14:49;;;;;;;;;12.75;7.25;;;;;20.65;38.00;102375.22;4874392;28;45520;-71
2022/02/08 01:17:15;;;;;;;;;14.00;10.25;;;;;20.65;38.01;102377.84;4905753;28;45315;-71
2022/02/08 01:19:48;;;;;;;;;11.75;10.25;;;;;20.65;38.00;102377.84;4877599;29;45294;-71
2022/02/08 01:22:13;;;;;;;;;14.00;10.00;;;;;20.63;37.80;102384.94;4886884;29;45240;-71
2022/02/08 01:24:39;;;;;;;;;11.75;10.00;;;;;20.61;37.75;102379.66;4886300;29;45416;-71
2022/02/08 01:27:09;;;;;;;;;13.00;9.00;;;;;20.59;37.83;102386.75;4870885;29;47713;-71
2022/02/08 01:29:52;;;;;;;;;13.25;9.50;;;;;20.55;38.06;102388.53;4856508;29;45293;-71
2022/02/08 01:41:02;;;;;;;;;10.50;9.25;;;;;20.49;37.85;102392.97;4887454;29;45399;-71
2022/02/08 01:46:14;;;;;;;;;11.75;10.00;;;;;20.44;38.35;102405.41;4834189;29;45455;-71
2022/02/08 01:48:47;;;;;;;;;12.75;11.25;;;;;20.43;38.29;102403.59;4816191;29;47113;-71
2022/02/08 01:51:13;;;;;;;;;9.25;8.25;;;;;20.41;38.28;102406.25;4863802;28;45541;-70
2022/02/08 01:53:38;;;;;;;;;11.00;10.25;;;;;20.42;38.24;102409.81;4904639;28;56685;-70
2022/02/08 01:56:04;;;;;;;;;10.00;9.25;;;;;20.43;38.23;102406.25;4889050;28;45554;-71
2022/02/08 01:58:29;;;;;;;;;9.75;9.75;;;;;20.43;38.27;102404.53;4889206;28;46911;-71
2022/02/08 02:00:54;;;;;;;;;13.25;9.00;;;;;20.46;38.07;102408.91;4921826;28;51651;-71
2022/02/08 02:03:20;;;;;;;;;9.50;9.50;;;;;20.45;38.05;102396.56;4905112;28;45999;-71
2022/02/08 02:05:45;;;;;;;;;15.00;13.00;;;;;20.44;38.24;102397.44;4904182;28;64690;-71
2022/02/08 02:08:11;;;;;;;;;11.00;9.75;;;;;20.42;38.17;102397.44;4873293;28;48182;-71
2022/02/08 02:10:37;;;;;;;;;12.50;11.25;;;;;20.41;38.53;102406.25;4908540;28;52495;-71
2022/02/08 02:13:09;;;;;;;;;17.75;14.00;;;;;20.41;38.08;102400.94;4905126;28;45314;-71
2022/02/08 02:15:35;;;;;;;;;15.50;11.75;;;;;20.41;38.31;102400.94;4905216;28;45431;-70
2022/02/08 02:18:00;;;;;;;;;11.25;10.00;;;;;20.39;38.23;102400.06;4925462;28;46188;-71
2022/02/08 02:20:26;;;;;;;;;13.25;10.25;;;;;20.39;38.39;102400.06;4889745;28;45328;-70
2022/02/08 02:22:51;;;;;;;;;13.75;12.50;;;;;20.36;38.40;102393.91;4920445;28;45360;-70
2022/02/08 02:25:24;;;;;;;;;13.50;11.00;;;;;20.36;38.47;102396.56;4888017;28;66016;-71
2022/02/08 02:27:50;;;;;;;;;17.75;13.00;;;;;20.36;38.63;102388.63;4904518;28;47379;-71
2022/02/08 02:30:16;;;;;;;;;17.75;14.00;;;;;20.36;38.12;102388.63;4920269;28;45455;-71
2022/02/08 02:32:41;;;;;;;;;15.00;14.50;;;;;20.33;38.86;102386.88;4920613;28;45362;-70
2022/02/08 02:35:07;;;;;;;;;13.00;10.25;;;;;20.35;38.69;102389.50;4904525;28;45357;-71
2022/02/08 02:37:33;;;;;;;;;12.75;12.25;;;;;20.36;38.62;102388.63;4904033;28;48694;-71
2022/02/08 02:39:58;;;;;;;;;14.25;11.50;;;;;20.36;38.82;102389.50;4903571;28;64964;-70
2022/02/08 02:42:26;;;;;;;;;12.25;11.25;;;;;20.36;38.60;102381.53;4903974;28;56182;-71
2022/02/08 02:44:51;;;;;;;;;12.50;11.50;;;;;20.36;38.64;102383.31;4904821;28;45215;-71
2022/02/08 02:47:17;;;;;;;;;12.50;10.50;;;;;20.33;38.83;102379.78;4904410;28;47676;-71
2022/02/08 02:49:42;;;;;;;;;12.50;12.25;;;;;20.34;38.83;102383.31;4920079;28;45895;-71
2022/02/08 02:52:08;;;;;;;;;14.00;11.75;;;;;20.33;38.43;102377.13;4920554;28;45344;-71
2022/02/08 02:54:33;;;;;;;;;13.00;12.00;;;;;20.33;38.74;102384.22;4903946;28;45608;-71
2022/02/08 02:57:00;;;;;;;;;11.00;10.25;;;;;20.32;38.48;102378.00;4907568;28;52039;-71
2022/02/08 02:59:26;;;;;;;;;12.00;11.00;;;;;20.31;38.59;102378.88;4892150;28;45879;-70
2022/02/08 03:20:38;;;;;;;;;12.75;9.50;;;;;20.31;38.64;102378.88;4892342;29;45381;-71
2022/02/08 03:23:03;;;;;;;;;14.75;10.50;;;;;20.32;38.91;102385.06;4888495;29;45374;-71
2022/02/08 03:25:29;;;;;;;;;10.50;9.50;;;;;20.32;38.73;102383.31;4850176;29;62631;-71
2022/02/08 03:27:54;;;;;;;;;14.25;12.75;;;;;20.31;38.81;102381.53;4882093;29;53072;-71
2022/02/08 03:30:20;;;;;;;;;12.25;9.50;;;;;20.31;38.95;102381.53;4878254;28;62376;-71
2022/02/08 03:32:45;;;;;;;;;12.00;10.00;;;;;20.32;38.96;102383.31;4907360;28;45249;-71
2022/02/08 03:35:12;;;;;;;;;9.00;9.00;;;;;20.32;38.88;102382.41;4907249;28;45544;-71
2022/02/08 03:37:37;;;;;;;;;8.25;8.25;;;;;20.31;39.03;102380.66;4907364;28;45273;-71
2022/02/08 03:40:09;;;;;;;;;12.75;10.25;;;;;20.30;38.97;102387.75;4906907;28;45460;-71
2022/02/08 03:42:46;;;;;;;;;8.75;8.50;;;;;20.28;38.86;102381.56;4892299;28;45288;-70
2022/02/08 03:45:13;;;;;;;;;13.00;10.50;;;;;20.25;39.04;102386.91;4878704;28;45472;-71
2022/02/08 03:47:39;;;;;;;;;10.00;10.00;;;;;20.23;38.96;102386.00;4876196;28;47298;-71
2022/02/08 03:50:05;;;;;;;;;14.00;8.75;;;;;20.23;39.16;102398.38;4891613;28;45442;-70
2022/02/08 03:52:31;;;;;;;;;10.00;10.00;;;;;20.23;39.05;102399.25;4906903;28;45346;-70
2022/02/08 03:54:56;;;;;;;;;12.25;10.00;;;;;20.24;38.86;102390.44;4891130;28;45469;-71
2022/02/08 03:57:26;;;;;;;;;10.00;10.00;;;;;20.27;39.09;102394.84;4891057;28;45654;-70
2022/02/08 03:59:51;;;;;;;;;9.25;7.75;;;;;20.29;39.26;102393.94;4892341;28;45267;-71
2022/02/08 04:05:38;;;;;;;;;10.00;9.50;;;;;20.32;39.14;102390.38;4858540;28;45566;-70
2022/02/08 04:08:08;;;;;;;;;9.50;8.50;;;;;20.32;39.22;102388.59;4897324;28;46715;-71
2022/02/08 04:10:33;;;;;;;;;9.50;9.00;;;;;20.33;38.87;102393.06;4895665;28;45951;-70
2022/02/08 04:13:13;;;;;;;;;9.75;8.75;;;;;20.34;39.07;102391.28;4906608;28;46452;-70
2022/02/08 04:15:55;;;;;;;;;9.25;8.00;;;;;20.33;39.03;102387.75;4894624;28;45703;-70
2022/02/08 04:34:54;;;;;;;;;7.00;7.00;;;;;20.32;39.37;102399.22;4906763;28;45408;-71
2022/02/08 04:45:28;;;;;;;;;8.50;8.00;;;;;20.36;39.45;102393.91;4922262;28;45539;-71
2022/02/08 04:50:27;;;;;;;;;8.25;8.00;;;;;20.33;39.76;102393.06;4906507;28;45464;-71
2022/02/08 04:52:57;;;;;;;;;10.50;8.50;;;;;20.33;39.51;102387.75;4890599;28;45703;-71
2022/02/08 04:58:27;;;;;;;;;9.25;7.75;;;;;20.36;39.74;102385.97;4922125;28;45383;-71
2022/02/08 05:44:28;;;;;;;;;7.50;6.50;;;;;20.55;40.83;102388.53;4907409;28;46183;-70
2022/02/08 05:46:51;;;;;;;;;6.25;6.25;;;;;20.65;40.90;102384.03;4920680;28;45269;-71
2022/02/08 05:49:24;;;;;;;;;8.00;5.75;;;;;20.70;40.95;102382.25;4905765;28;45257;-71
2022/02/08 05:54:16;;;;;;;;;8.00;6.75;;;;;20.85;41.25;102383.94;4920614;28;45418;-70
2022/02/08 05:56:42;;;;;;;;;9.00;7.00;;;;;20.93;41.53;102381.19;4923627;28;45311;-72
2022/02/08 05:59:10;;;;;;;;;12.50;9.75;;;;;21.00;42.08;102382.91;4905113;28;45270;-71
2022/02/08 06:01:36;;;;;;;;;8.00;8.00;;;;;21.11;43.00;102375.72;4920830;28;50035;-71
2022/02/08 06:04:01;;;;;;;;;6.75;6.75;;;;;21.28;43.54;102370.31;4922442;28;45394;-71
2022/02/08 06:06:30;;;;;;;;;8.25;6.75;;;;;21.47;43.04;102368.38;4889366;28;45339;-71
2022/02/08 06:08:55;;;;;;;;;9.75;8.00;;;;;21.59;43.23;102371.78;4920750;28;45477;-73
2022/02/08 06:11:23;;;;;;;;;12.50;7.25;;;;;21.68;43.33;102365.50;4894366;29;45246;-71
2022/02/08 06:13:51;;;;;;;;;7.50;6.25;;;;;21.76;43.35;102379.56;4915043;28;45378;-71
2022/02/08 06:16:18;;;;;;;;;9.00;7.00;;;;;21.81;42.97;102377.75;4913804;28;45495;-72
2022/02/08 06:18:44;;;;;;;;;10.50;7.50;;;;;21.83;43.00;102365.31;4927009;28;45216;-71
2022/02/08 06:21:10;;;;;;;;;9.50;5.75;;;;;21.85;43.40;102371.50;4920960;28;45257;-73
2022/02/08 06:23:35;;;;;;;;;7.00;6.25;;;;;21.86;43.25;102373.25;4888748;28;46897;-72
2022/02/08 06:26:01;;;;;;;;;9.75;7.25;;;;;21.88;43.95;102387.41;4904696;28;45614;-73
2022/02/08 06:28:26;;;;;;;;;7.00;5.75;;;;;21.89;43.55;102375.91;4921497;28;52115;-71
2022/02/08 06:30:52;;;;;;;;;8.25;7.25;;;;;21.90;43.74;102382.09;4903844;28;45429;-72
2022/02/08 06:33:18;;;;;;;;;7.25;7.00;;;;;21.90;43.35;102376.78;4904506;28;45347;-72
2022/02/08 06:35:43;;;;;;;;;9.50;6.00;;;;;21.89;43.29;102381.22;4888900;28;45486;-72
2022/02/08 06:38:12;;;;;;;;;7.00;5.50;;;;;21.89;43.23;102383.88;4921573;28;45382;-73
2022/02/08 06:40:38;;;;;;;;;8.75;7.00;;;;;21.89;43.31;102382.97;4905106;28;45408;-73
2022/02/08 06:43:04;;;;;;;;;6.75;6.50;;;;;21.88;43.49;102384.75;4904698;28;45369;-72
2022/02/08 06:45:33;;;;;;;;;7.00;7.00;;;;;21.88;43.56;102390.06;4904799;28;45296;-74
2022/02/08 06:47:59;;;;;;;;;8.50;7.00;;;;;21.89;42.94;102393.59;4904925;28;45507;-74
2022/02/08 06:50:25;;;;;;;;;8.25;5.00;;;;;21.88;43.25;102397.16;4904543;28;45477;-72
2022/02/08 06:52:50;;;;;;;;;8.50;7.25;;;;;21.88;43.22;102400.69;4904001;28;45511;-71
2022/02/08 06:55:16;;;;;;;;;8.00;8.00;;;;;21.88;43.82;102395.38;4904197;28;45516;-71
2022/02/08 07:00:32;;;;;;;;;8.75;6.25;;;;;21.89;43.47;102397.16;4920224;28;45434;-71
2022/02/08 07:02:57;;;;;;;;;6.50;6.00;;;;;21.89;43.30;102404.22;4890020;28;46905;-71
2022/02/08 07:05:23;;;;;;;;;13.75;7.00;;;;;21.90;43.21;102409.56;4921480;28;45397;-71
2022/02/08 07:07:48;;;;;;;;;7.00;6.00;;;;;21.91;43.08;102408.66;4904064;28;47682;-71
2022/02/08 07:10:13;;;;;;;;;6.25;6.25;;;;;21.92;42.62;102413.06;4921234;28;45409;-71
2022/02/08 07:12:40;;;;;;;;;10.50;7.50;;;;;21.92;42.96;102418.38;4899104;28;59567;-70
2022/02/08 07:15:11;;;;;;;;;8.75;6.75;;;;;21.92;42.62;102412.19;4921402;28;45298;-70
2022/02/08 07:17:36;;;;;;;;;11.50;8.75;;;;;21.93;42.76;102416.59;4921782;28;45260;-70
2022/02/08 07:20:03;;;;;;;;;7.25;5.25;;;;;21.88;41.49;102413.97;4925252;28;45229;-70
2022/02/08 07:22:29;;;;;;;;;6.75;6.00;;;;;21.79;41.74;102419.41;4920965;28;45328;-71
2022/02/08 07:24:55;;;;;;;;;10.00;9.00;;;;;21.72;41.89;102426.59;4904094;28;45323;-71
2022/02/08 07:27:21;;;;;;;;;10.00;9.50;;;;;21.66;41.22;102439.91;4920121;28;45353;-71
2022/02/08 07:29:51;;;;;;;;;11.50;7.25;;;;;21.57;40.92;102434.69;4921128;28;45439;-70
2022/02/08 07:32:17;;;;;;;;;9.00;7.25;;;;;21.47;41.42;102437.47;4921031;28;46277;-70
2022/02/08 07:34:51;;;;;;;;;8.75;6.00;;;;;21.40;41.19;102436.63;4903845;28;45250;-69
2022/02/08 07:37:32;;;;;;;;;10.25;8.00;;;;;21.34;41.00;102436.66;4920839;28;45146;-70
2022/02/08 07:40:03;;;;;;;;;11.25;7.00;;;;;21.30;41.11;102437.59;4919897;28;45538;-68
2022/02/08 07:42:28;;;;;;;;;9.50;8.50;;;;;21.25;41.29;102437.59;4923433;28;45368;-68
2022/02/08 07:44:53;;;;;;;;;10.00;8.75;;;;;21.23;41.03;102434.06;4924105;28;46922;-68
2022/02/08 07:47:19;;;;;;;;;9.25;8.25;;;;;21.20;41.81;102436.75;4922760;28;47950;-68
2022/02/08 07:49:44;;;;;;;;;10.50;10.00;;;;;21.19;41.36;102437.63;4907191;28;45534;-70
2022/02/08 07:52:09;;;;;;;;;10.00;8.25;;;;;21.17;41.13;102436.75;4923516;28;46354;-69
2022/02/08 07:54:35;;;;;;;;;9.00;9.00;;;;;21.14;41.21;102436.81;4923827;28;45326;-69
2022/02/08 07:57:00;;;;;;;;;9.50;9.50;;;;;21.10;40.72;102440.34;4929697;28;45678;-70
2022/02/08 07:59:26;;;;;;;;;12.00;8.00;;;;;21.07;41.41;102441.25;4906118;28;59549;-69
2022/02/08 08:01:51;;;;;;;;;10.25;9.00;;;;;21.08;40.92;102437.72;4906550;28;47178;-70
2022/02/08 08:04:17;;;;;;;;;11.00;8.25;;;;;21.08;41.15;102431.53;4906291;28;45423;-69
2022/02/08 08:06:42;;;;;;;;;10.00;8.50;;;;;21.09;41.35;102427.97;4890812;28;45751;-70
2022/02/08 08:09:07;;;;;;;;;10.00;9.00;;;;;21.12;41.79;102438.59;4906282;28;45465;-69
2022/02/08 08:11:38;;;;;;;;;10.50;9.75;;;;;21.13;41.61;102435.03;4893689;29;60413;-70
2022/02/08 08:14:05;;;;;;;;;10.00;10.00;;;;;21.14;41.21;102435.03;4902990;29;45315;-70
2022/02/08 08:21:39;;;;;;;;;14.50;8.25;;;;;21.21;41.49;102425.25;4907336;28;45900;-70
2022/02/08 08:24:05;;;;;;;;;14.00;10.00;;;;;21.26;43.74;102431.38;4906098;28;45575;-71
2022/02/08 08:26:31;;;;;;;;;14.25;10.50;;;;;21.29;42.51;102426.09;4917260;28;45334;-71
2022/02/08 08:28:57;;;;;;;;;11.00;9.00;;;;;21.33;42.75;102419.84;4906229;28;45485;-71
2022/02/08 08:31:22;;;;;;;;;16.50;12.50;;;;;21.35;42.00;102428.69;4906058;28;46013;-71
2022/02/08 08:33:47;;;;;;;;;9.50;7.50;;;;;21.37;41.70;102423.34;4906273;28;45446;-72
2022/02/08 08:36:14;;;;;;;;;10.25;8.50;;;;;21.40;41.55;102431.31;4921762;28;45369;-73
2022/02/08 08:38:39;;;;;;;;;9.75;9.00;;;;;21.39;41.60;102427.78;4891057;28;45723;-73
2022/02/08 08:41:20;;;;;;;;;7.75;7.75;;;;;21.41;41.15;102428.63;4890285;28;47990;-71
2022/02/08 08:54:07;;;;;;;;;9.75;8.00;;;;;21.43;40.38;102436.59;4920758;28;45458;-72
2022/02/08 08:56:33;;;;;;;;;10.25;8.25;;;;;21.43;40.31;102437.47;4906034;28;45450;-73
2022/02/08 08:58:59;;;;;;;;;8.75;6.25;;;;;21.48;40.74;102431.25;4905723;28;45399;-72
2022/02/08 09:01:25;;;;;;;;;10.50;9.25;;;;;21.49;39.89;102444.50;4921607;28;47378;-72
2022/02/08 09:03:52;;;;;;;;;8.25;7.50;;;;;21.50;40.31;102437.41;4889755;28;45250;-71
2022/02/08 09:06:17;;;;;;;;;5.25;5.00;;;;;21.50;40.24;102442.72;4890631;28;45288;-72
2022/02/08 09:08:43;;;;;;;;;8.50;6.00;;;;;21.49;39.52;102448.94;4905017;28;45441;-71
2022/02/08 09:11:16;;;;;;;;;10.00;9.00;;;;;21.48;39.99;102440.09;4905131;28;47291;-71
2022/02/08 09:13:52;;;;;;;;;7.25;4.25;;;;;21.49;39.95;102440.97;4921192;28;45391;-72
2022/02/08 09:19:27;;;;;;;;;10.75;8.00;;;;;21.45;39.60;102438.31;4905959;28;45407;-71
2022/02/08 09:29:06;;;;;;;;;7.00;6.50;;;;;21.42;39.86;102432.16;4921224;28;45323;-72
2022/02/08 09:31:33;;;;;;;;;9.50;7.00;;;;;21.41;39.42;102427.75;4905723;28;46707;-72
2022/02/08 09:33:58;;;;;;;;;13.25;9.00;;;;;21.38;39.42;102430.44;4922909;28;45295;-72
2022/02/08 09:36:25;;;;;;;;;8.00;8.00;;;;;21.31;39.01;102432.28;4921444;28;45378;-73
2022/02/08 09:38:54;;;;;;;;;8.25;7.00;;;;;21.28;39.49;102419.00;4920981;28;45326;-73
2022/02/08 09:41:21;;;;;;;;;6.25;6.25;;;;;21.26;39.59;102426.06;4921126;28;45395;-72
2022/02/08 09:43:47;;;;;;;;;7.50;6.75;;;;;21.25;39.88;102426.09;4921290;28;45438;-72
2022/02/08 09:46:13;;;;;;;;;9.50;9.50;;;;;21.23;39.71;102425.22;4922110;28;45285;-72
2022/02/08 09:48:44;;;;;;;;;9.00;8.00;;;;;21.23;39.44;102426.09;4906024;28;45617;-73
2022/02/08 09:51:13;;;;;;;;;9.50;9.00;;;;;21.23;39.71;102430.53;4921234;28;48151;-72
2022/02/08 09:53:40;;;;;;;;;8.50;8.00;;;;;21.23;39.04;102428.75;4905256;28;45268;-73
2022/02/08 09:56:07;;;;;;;;;9.75;7.25;;;;;21.23;39.31;102435.84;4889612;28;45471;-73
2022/02/08 09:58:33;;;;;;;;;10.25;8.00;;;;;21.17;39.10;102420.84;4905305;28;45572;-71
2022/02/08 10:01:04;;;;;;;;;9.50;7.50;;;;;21.14;39.67;102424.41;4921773;28;46160;-71
2022/02/08 10:03:29;;;;;;;;;7.50;7.00;;;;;21.14;39.74;102423.53;4920563;28;45305;-72
2022/02/08 10:05:56;;;;;;;;;10.25;7.75;;;;;21.14;39.52;102424.41;4921376;28;61772;-72
2022/02/08 10:08:21;;;;;;;;;7.00;6.75;;;;;21.14;39.51;102426.19;4920564;28;45449;-72
2022/02/08 10:10:47;;;;;;;;;8.00;7.75;;;;;21.10;39.43;102427.06;4908897;28;62500;-72
2022/02/08 10:13:30;;;;;;;;;8.50;8.50;;;;;21.10;39.80;102427.06;4890846;28;45405;-72
2022/02/08 10:21:43;;;;;;;;;9.00;8.00;;;;;21.07;39.19;102421.81;4887717;29;46197;-71
2022/02/08 10:24:09;;;;;;;;;8.50;7.75;;;;;21.05;39.39;102426.25;4876319;29;45295;-72
2022/02/08 10:26:44;;;;;;;;;5.00;5.00;;;;;21.01;39.45;102425.38;4885679;29;45564;-72
2022/02/08 10:40:04;;;;;;;;;11.00;8.00;;;;;20.90;39.98;102432.53;4888036;29;45478;-71
2022/02/08 10:42:29;;;;;;;;;9.75;7.50;;;;;20.90;39.80;102424.56;4885863;29;46703;-71
2022/02/08 10:44:56;;;;;;;;;8.75;6.50;;;;;20.91;40.36;102428.09;4870204;29;45308;-69
2022/02/08 10:47:35;;;;;;;;;8.75;7.50;;;;;20.89;40.22;102425.47;4869797;29;45467;-70
2022/02/08 10:50:01;;;;;;;;;11.75;10.25;;;;;20.88;40.14;102429.03;4854773;29;46291;-70
2022/02/08 10:52:28;;;;;;;;;7.25;6.75;;;;;20.87;39.97;102432.56;4869219;29;45888;-70
2022/02/08 10:54:55;;;;;;;;;8.25;8.00;;;;;20.85;39.98;102429.94;4869454;29;45446;-70
2022/02/08 10:57:31;;;;;;;;;7.25;6.00;;;;;20.85;39.94;102435.22;4854554;29;45375;-70
2022/02/08 11:00:01;;;;;;;;;9.50;9.00;;;;;20.85;40.34;102435.22;4872596;29;45611;-70
2022/02/08 11:02:36;;;;;;;;;7.75;7.75;;;;;20.87;40.03;102422.84;4870220;29;45329;-70
2022/02/08 11:05:10;;;;;;;;;9.00;7.25;;;;;20.90;40.08;102421.91;4870367;29;45505;-70
2022/02/08 11:12:54;;;;;;;;;8.00;6.75;;;;;21.00;40.58;102412.13;4909109;28;45252;-71
2022/02/08 11:20:38;;;;;;;;;8.50;7.00;;;;;21.03;39.93;102412.13;4908804;28;45529;-70
2022/02/08 11:23:25;;;;;;;;;5.50;5.25;;;;;21.03;40.17;102410.34;4908031;28;46073;-70
2022/02/08 11:25:53;;;;;;;;;7.25;6.25;;;;;21.04;40.29;102400.59;4892664;28;45815;-70
2022/02/08 11:28:28;;;;;;;;;5.00;5.00;;;;;21.02;40.25;102402.34;4907484;28;45312;-70
2022/02/08 11:31:47;;;;;;;;;6.00;6.00;;;;;21.03;40.39;102409.47;4908569;28;45372;-70
2022/02/08 11:34:00;;;;;;;;;6.25;6.25;;;;;21.03;40.11;102402.38;4899677;28;45483;-70
2022/02/08 11:48:07;;;;;;;;;5.00;5.00;;;;;21.00;40.25;102385.56;4922968;28;45366;-70
2022/02/08 11:59:00;;;;;;;;;12.75;10.00;;;;;21.11;41.06;102370.44;4922816;28;45350;-70
2022/02/08 12:01:59;;;;;;;;;13.75;13.00;;;;;21.15;40.79;102364.22;4909543;28;45269;-71
2022/02/08 12:34:06;;;;;;;;;12.50;9.25;;;;;21.09;40.61;102337.72;4915178;28;45222;-73
2022/02/08 12:39:35;;;;;;;;;7.75;7.00;;;;;21.06;40.60;102333.31;4892885;28;45830;-73
2022/02/08 12:39:55;;;;;;;;;8.75;8.25;;;;;21.07;40.56;102331.53;4908705;28;45335;-71
2022/02/08 13:01:54;;;;;;;;;7.00;7.00;;;;;21.00;40.89;102303.28;4892334;28;45341;-71
2022/02/08 14:09:52;;;;;;;;;27.25;23.00;;;;;21.08;43.76;102269.59;4905043;28;45269;-70
2022/02/08 14:15:23;;;;;;;;;25.25;20.25;;;;;21.07;44.45;102254.56;4920881;28;45205;-70
2022/02/08 14:18:00;;;;;;;;;19.75;16.00;;;;;21.10;42.52;102254.50;4922626;28;46369;-72
2022/02/08 14:21:04;;;;;;;;;20.25;14.25;;;;;21.08;42.67;102257.19;4879584;28;45397;-72
2022/02/08 14:34:09;;;;;;;;;14.00;12.75;;;;;21.12;44.55;102256.28;4920706;28;45234;-71
2022/02/08 15:08:38;;;;;;;;;6.75;6.75;;;;;21.07;42.00;102243.94;4907268;28;45563;-71
2022/02/08 15:11:09;;;;;;;;;7.25;6.00;;;;;21.06;41.74;102245.72;4907678;28;48050;-71
2022/02/08 15:13:36;;;;;;;;;7.00;6.25;;;;;21.05;41.58;102248.38;4902656;28;45336;-71
2022/02/08 15:18:31;;;;;;;;;6.75;6.25;;;;;21.01;41.38;102249.28;4913596;28;45563;-71
2022/02/08 15:20:56;;;;;;;;;6.00;6.00;;;;;20.99;41.37;102248.44;4907602;28;45481;-71
2022/02/08 15:23:22;;;;;;;;;7.00;6.00;;;;;20.96;41.19;102251.13;4923139;28;45315;-71
2022/02/08 15:25:50;;;;;;;;;11.25;6.50;;;;;20.94;41.34;102248.50;4923183;28;45176;-71
2022/02/08 15:28:16;;;;;;;;;6.75;4.25;;;;;20.94;41.47;102247.59;4907074;28;45472;-72
2022/02/08 15:30:42;;;;;;;;;5.00;5.00;;;;;20.95;41.08;102249.38;4906857;28;45971;-72
2022/02/08 15:33:10;;;;;;;;;7.00;6.00;;;;;20.95;41.73;102255.56;4907120;28;45370;-72
2022/02/08 15:35:36;;;;;;;;;5.00;5.00;;;;;20.99;42.04;102241.34;4923253;28;45284;-72
2022/02/08 15:38:01;;;;;;;;;7.00;6.25;;;;;21.04;42.54;102251.94;4890945;28;45834;-70
2022/02/08 15:40:27;;;;;;;;;8.25;6.50;;;;;21.10;42.60;102254.50;4922695;28;45542;-70
2022/02/08 15:42:52;;;;;;;;;6.00;6.00;;;;;21.16;42.84;102249.16;4923075;28;45840;-71
2022/02/08 15:45:26;;;;;;;;;7.50;5.75;;;;;21.19;43.03;102254.41;4924232;28;45429;-71
2022/02/08 15:47:51;;;;;;;;;7.50;6.00;;;;;21.25;43.07;102234.88;4893569;28;45243;-69
2022/02/08 15:50:26;;;;;;;;;8.00;6.75;;;;;21.29;43.07;102244.63;4922799;28;48332;-69
2022/02/08 16:08:33;;;;;;;;;7.25;6.00;;;;;21.49;42.94;102239.06;4923746;28;45537;-71
2022/02/08 16:13:43;;;;;;;;;8.25;8.25;;;;;21.51;42.71;102237.28;4922559;28;45273;-70
2022/02/08 16:16:20;;;;;;;;;8.00;6.67;;;;;21.54;42.94;102240.75;4923656;28;45244;-69
2022/02/08 16:19:17;;;;;;;;;7.00;7.00;;;;;21.55;43.15;102245.19;4928629;28;45488;-70
2022/02/08 16:24:17;;;;;;;;;5.75;5.75;;;;;21.57;42.74;102234.56;4922388;28;45448;-69
2022/02/08 16:51:31;;;;;;;;;7.75;7.00;;;;;21.61;42.72;102246.88;4921945;28;45299;-72
2022/02/08 16:53:33;;;;;;;;;7.00;6.00;;;;;21.61;42.79;102249.53;4921632;28;45319;-72
2022/02/08 17:00:57;;;;;;;;;7.00;7.00;;;;;21.62;43.06;102249.50;4921757;28;45253;-72
2022/02/08 17:03:27;;;;;;;;;9.50;8.75;;;;;21.65;42.90;102253.94;4921394;28;45635;-72
2022/02/08 17:05:53;;;;;;;;;7.00;7.00;;;;;21.66;42.62;102251.25;4905912;28;45322;-73
2022/02/08 17:08:19;;;;;;;;;10.25;8.00;;;;;21.67;43.89;102253.00;4921629;28;45913;-72
2022/02/08 17:10:48;;;;;;;;;11.25;10.00;;;;;21.67;47.23;102241.50;4899839;29;45574;-72
2022/02/08 17:47:42;;;;;;;;;9.00;6.00;;;;;21.45;43.26;102248.84;4921370;28;45532;-70
2022/02/08 17:50:09;;;;;;;;;9.00;9.00;;;;;21.35;42.71;102253.38;4892790;28;45292;-71
2022/02/08 17:52:36;;;;;;;;;12.00;8.25;;;;;21.29;42.61;102253.47;4889151;28;45424;-70
2022/02/08 17:55:03;;;;;;;;;4.75;3.75;;;;;21.26;42.78;102255.22;4904776;28;45478;-70
2022/02/08 17:57:28;;;;;;;;;8.00;8.00;;;;;21.24;42.45;102251.72;4920814;28;45433;-70
2022/02/08 17:59:54;;;;;;;;;8.75;7.25;;;;;21.20;42.62;102260.59;4905166;28;45393;-73
2022/02/08 18:02:21;;;;;;;;;10.25;9.25;;;;;21.21;42.63;102257.06;4905118;28;45339;-70
2022/02/08 18:04:47;;;;;;;;;9.00;8.00;;;;;21.21;42.05;102263.25;4904728;28;45518;-70
2022/02/08 18:07:17;;;;;;;;;9.75;8.00;;;;;21.21;42.12;102262.38;4920663;28;45318;-69
2022/02/08 18:09:43;;;;;;;;;10.00;10.00;;;;;21.18;42.33;102255.31;4905544;28;45405;-70
2022/02/08 18:12:08;;;;;;;;;8.25;8.00;;;;;21.20;42.40;102258.84;4860883;28;45483;-69
2022/02/08 18:14:34;;;;;;;;;8.75;7.50;;;;;21.23;42.81;102257.94;4894422;29;47352;-68
2022/02/08 18:17:10;;;;;;;;;8.00;8.00;;;;;21.23;42.00;102253.50;4885594;29;45356;-69
2022/02/08 18:19:39;;;;;;;;;10.75;9.25;;;;;21.22;42.60;102259.72;4893241;29;45276;-68
2022/02/08 18:57:22;;;;;;;;;8.25;7.00;;;;;21.08;44.45;102261.63;4871762;29;45435;-71
2022/02/08 19:08:21;;;;;;;;;10.25;9.50;;;;;21.43;44.94;102261.28;4868766;29;45784;-72
2022/02/08 19:16:25;;;;;;;;;8.50;8.50;;;;;21.61;44.45;102261.03;4921168;28;45280;-69
2022/02/08 19:24:02;;;;;;;;;12.00;9.00;;;;;21.73;44.30;102252.94;4919975;28;45366;-73
2022/02/08 19:26:28;;;;;;;;;12.00;9.00;;;;;21.85;44.15;102258.97;4905864;28;45284;-71
2022/02/08 19:28:54;;;;;;;;;12.75;9.75;;;;;21.93;44.05;102251.78;4887461;28;47056;-73
2022/02/08 19:31:20;;;;;;;;;14.00;12.25;;;;;22.00;44.18;102254.34;4904057;28;45245;-73
2022/02/08 19:33:50;;;;;;;;;9.25;9.25;;;;;22.05;43.67;102251.59;4920172;28;45433;-71